Time;durP1;ratioP1;P1;durP2;ratioP2;P2;SDS_P1;SDS_P2;PMS_P1;PMS_P2;Temp;Humidity;BMP_temperature;BMP_pressure;BME280_temperature;BME280_humidity;BME280_pressure;Samples;Min_cycle;Max_cycle;Signal;HPM_P1;HPM_P2
2023/06/29 00:01:46;;;;;;;6.20;5.60;;;;;;;;;;5051831;28;20475;-49
2023/06/29 00:04:12;;;;;;;7.50;5.20;;;;;;;;;;5051624;28;20918;-48
2023/06/29 00:06:38;;;;;;;7.47;5.10;;;;;;;;;;5051571;28;20929;-47
2023/06/29 00:09:04;;;;;;;11.33;5.23;;;;;;;;;;5051749;28;20415;-47
2023/06/29 00:11:31;;;;;;;8.70;5.53;;;;;;;;;;5051439;28;20555;-48
2023/06/29 00:13:57;;;;;;;6.13;5.53;;;;;;;;;;5050891;28;20424;-49
2023/06/29 00:16:23;;;;;;;7.87;5.57;;;;;;;;;;5051418;28;20435;-48
2023/06/29 00:18:54;;;;;;;12.40;7.00;;;;;;;;;;5051851;28;20506;-46
2023/06/29 00:21:20;;;;;;;10.97;5.97;;;;;;;;;;5049063;28;20412;-48
2023/06/29 00:23:46;;;;;;;8.03;5.60;;;;;;;;;;5051517;28;20405;-49
2023/06/29 00:26:13;;;;;;;6.83;5.53;;;;;;;;;;5051463;28;20513;-50
2023/06/29 00:28:39;;;;;;;8.50;5.80;;;;;;;;;;5043468;28;20463;-49
2023/06/29 00:31:05;;;;;;;8.40;6.40;;;;;;;;;;5051251;28;20477;-49
2023/06/29 00:33:31;;;;;;;6.77;6.00;;;;;;;;;;5051304;28;20434;-50
2023/06/29 00:35:57;;;;;;;6.10;4.70;;;;;;;;;;5051469;28;20474;-48
2023/06/29 00:38:23;;;;;;;8.53;5.30;;;;;;;;;;5051462;28;20436;-48
2023/06/29 00:40:49;;;;;;;15.77;7.03;;;;;;;;;;5051149;28;20918;-49
2023/06/29 00:43:15;;;;;;;8.27;6.00;;;;;;;;;;5051809;28;20495;-49
2023/06/29 00:45:41;;;;;;;6.77;5.37;;;;;;;;;;5050248;28;20432;-49
2023/06/29 00:48:07;;;;;;;12.20;5.43;;;;;;;;;;5051240;28;20453;-49
2023/06/29 00:50:33;;;;;;;7.13;5.33;;;;;;;;;;5051212;28;20460;-48
2023/06/29 00:52:59;;;;;;;9.00;5.87;;;;;;;;;;5051390;28;20412;-48
2023/06/29 00:55:25;;;;;;;15.43;6.90;;;;;;;;;;5051573;28;20409;-50
2023/06/29 00:57:51;;;;;;;10.27;6.50;;;;;;;;;;5051082;28;20446;-49
2023/06/29 01:00:18;;;;;;;13.40;6.00;;;;;;;;;;5050848;28;20843;-48
2023/06/29 01:02:44;;;;;;;7.73;6.23;;;;;;;;;;5050681;28;20448;-50
2023/06/29 01:05:10;;;;;;;8.50;5.77;;;;;;;;;;5050952;28;20905;-49
2023/06/29 01:07:43;;;;;;;7.23;6.17;;;;;;;;;;5050110;28;21004;-48
2023/06/29 01:10:11;;;;;;;12.33;6.97;;;;;;;;;;5051381;28;20911;-48
2023/06/29 01:12:38;;;;;;;9.13;6.20;;;;;;;;;;5054789;28;20419;-48
2023/06/29 01:15:05;;;;;;;13.43;6.70;;;;;;;;;;5053913;28;20432;-48
2023/06/29 01:17:31;;;;;;;16.60;6.60;;;;;;;;;;5054809;28;20436;-46
2023/06/29 01:19:58;;;;;;;7.00;6.30;;;;;;;;;;5054405;28;20416;-48
2023/06/29 01:22:33;;;;;;;7.70;6.50;;;;;;;;;;5054795;28;20420;-49
2023/06/29 01:25:02;;;;;;;9.97;6.60;;;;;;;;;;5054669;28;20419;-49
2023/06/29 01:27:28;;;;;;;8.87;5.77;;;;;;;;;;5054314;28;20551;-48
2023/06/29 01:29:55;;;;;;;13.23;7.33;;;;;;;;;;5054679;28;20796;-48
2023/06/29 01:32:33;;;;;;;7.83;5.90;;;;;;;;;;5054588;28;20431;-49
2023/06/29 01:35:00;;;;;;;8.03;5.73;;;;;;;;;;5054766;28;20406;-50
2023/06/29 01:37:28;;;;;;;7.23;6.00;;;;;;;;;;5054371;28;20440;-49
2023/06/29 01:39:56;;;;;;;8.07;6.37;;;;;;;;;;5054224;28;20458;-50
2023/06/29 01:42:24;;;;;;;6.60;5.80;;;;;;;;;;5054362;28;20513;-50
2023/06/29 01:44:50;;;;;;;10.17;5.37;;;;;;;;;;5050711;28;20500;-50
2023/06/29 01:47:17;;;;;;;8.73;6.20;;;;;;;;;;5054091;28;20468;-50
2023/06/29 01:49:44;;;;;;;7.73;6.50;;;;;;;;;;5054061;28;20464;-48
2023/06/29 01:52:10;;;;;;;7.77;6.10;;;;;;;;;;5054196;28;20405;-47
2023/06/29 01:54:36;;;;;;;12.50;7.23;;;;;;;;;;5055860;28;20417;-48
2023/06/29 01:57:04;;;;;;;8.60;6.70;;;;;;;;;;5053946;28;20472;-47
2023/06/29 01:59:30;;;;;;;11.30;7.33;;;;;;;;;;5054170;28;20784;-50
2023/06/29 02:01:56;;;;;;;12.67;7.03;;;;;;;;;;5053863;28;20447;-50
2023/06/29 02:04:22;;;;;;;13.07;7.20;;;;;;;;;;5053809;28;20420;-48
2023/06/29 02:06:48;;;;;;;9.20;7.10;;;;;;;;;;5053774;28;20859;-51
2023/06/29 02:09:14;;;;;;;11.03;6.67;;;;;;;;;;5053836;28;20418;-50
2023/06/29 02:11:40;;;;;;;8.70;7.50;;;;;;;;;;5053879;28;20768;-50
2023/06/29 02:14:06;;;;;;;10.53;7.60;;;;;;;;;;5051010;28;20903;-50
2023/06/29 02:16:32;;;;;;;14.47;7.50;;;;;;;;;;5053648;28;20458;-49
2023/06/29 02:18:58;;;;;;;10.03;6.40;;;;;;;;;;5053876;28;20800;-50
2023/06/29 02:21:24;;;;;;;11.83;7.50;;;;;;;;;;5053290;28;20504;-49
2023/06/29 02:23:50;;;;;;;9.67;7.77;;;;;;;;;;5034597;28;20433;-49
2023/06/29 02:26:16;;;;;;;10.80;7.10;;;;;;;;;;5053418;28;20450;-49
2023/06/29 02:28:42;;;;;;;8.13;6.63;;;;;;;;;;5053570;28;20491;-49
2023/06/29 02:31:08;;;;;;;9.80;6.73;;;;;;;;;;5052590;28;20471;-47
2023/06/29 02:33:34;;;;;;;7.90;6.43;;;;;;;;;;5053244;28;20414;-47
2023/06/29 02:36:00;;;;;;;7.63;6.50;;;;;;;;;;5053325;28;20619;-50
2023/06/29 02:38:26;;;;;;;9.10;6.20;;;;;;;;;;5053077;28;20970;-50
2023/06/29 02:40:52;;;;;;;6.83;6.07;;;;;;;;;;5058024;28;20766;-50
2023/06/29 02:43:18;;;;;;;7.53;6.20;;;;;;;;;;5053173;28;20470;-50
2023/06/29 02:45:44;;;;;;;7.57;6.87;;;;;;;;;;5053214;28;20416;-49
2023/06/29 02:48:10;;;;;;;8.27;5.60;;;;;;;;;;5053078;28;20550;-50
2023/06/29 02:50:36;;;;;;;10.40;5.90;;;;;;;;;;5051671;28;20435;-49
2023/06/29 02:53:02;;;;;;;8.10;6.07;;;;;;;;;;5052800;28;21003;-50
2023/06/29 02:55:30;;;;;;;8.63;6.67;;;;;;;;;;5052967;28;20425;-46
2023/06/29 02:57:56;;;;;;;11.27;6.33;;;;;;;;;;5053156;28;20429;-50
2023/06/29 03:00:22;;;;;;;8.53;6.47;;;;;;;;;;5052577;28;20427;-49
2023/06/29 03:02:48;;;;;;;9.03;6.60;;;;;;;;;;5052990;28;20416;-50
2023/06/29 03:05:14;;;;;;;7.50;6.73;;;;;;;;;;5053194;28;20438;-50
2023/06/29 03:07:40;;;;;;;7.57;6.77;;;;;;;;;;5052447;28;20474;-51
2023/06/29 03:10:06;;;;;;;8.43;6.80;;;;;;;;;;5052493;28;20413;-49
2023/06/29 03:12:32;;;;;;;14.97;7.83;;;;;;;;;;5052696;28;20418;-49
2023/06/29 03:14:58;;;;;;;9.30;6.50;;;;;;;;;;5051465;28;20489;-50
2023/06/29 03:17:24;;;;;;;11.20;6.70;;;;;;;;;;5052493;28;20444;-49
2023/06/29 03:19:50;;;;;;;7.77;5.90;;;;;;;;;;5052349;28;20441;-48
2023/06/29 03:22:16;;;;;;;7.57;6.80;;;;;;;;;;5052271;28;20408;-49
2023/06/29 03:24:42;;;;;;;13.87;7.57;;;;;;;;;;5052425;28;20451;-49
2023/06/29 03:27:08;;;;;;;9.97;6.90;;;;;;;;;;5052263;28;20468;-47
2023/06/29 03:29:34;;;;;;;11.50;7.50;;;;;;;;;;5052345;28;20463;-50
2023/06/29 03:32:00;;;;;;;12.17;8.17;;;;;;;;;;5052194;28;20419;-50
2023/06/29 03:34:26;;;;;;;10.87;6.97;;;;;;;;;;5051728;28;20520;-49
2023/06/29 03:36:52;;;;;;;8.37;6.60;;;;;;;;;;5051936;28;20836;-51
2023/06/29 03:39:19;;;;;;;9.73;7.17;;;;;;;;;;5052030;28;20410;-50
2023/06/29 03:41:45;;;;;;;8.53;6.60;;;;;;;;;;5051922;28;20405;-50
2023/06/29 03:44:11;;;;;;;7.40;6.50;;;;;;;;;;5051989;28;20408;-50
2023/06/29 03:46:37;;;;;;;9.70;7.33;;;;;;;;;;5050841;28;20439;-50
2023/06/29 03:49:03;;;;;;;11.20;5.87;;;;;;;;;;5051817;28;21060;-49
2023/06/29 03:51:29;;;;;;;10.70;7.47;;;;;;;;;;5051468;28;20832;-50
2023/06/29 03:53:55;;;;;;;9.20;7.20;;;;;;;;;;5051818;28;20410;-49
2023/06/29 03:56:21;;;;;;;8.57;6.30;;;;;;;;;;5051186;28;20988;-50
2023/06/29 03:58:46;;;;;;;11.37;7.20;;;;;;;;;;5051427;28;20405;-49
2023/06/29 04:01:12;;;;;;;12.23;6.77;;;;;;;;;;5050992;28;20412;-46
2023/06/29 04:03:38;;;;;;;16.27;7.10;;;;;;;;;;5051226;28;20414;-50
2023/06/29 04:06:04;;;;;;;12.20;7.07;;;;;;;;;;5050958;28;20434;-50
2023/06/29 04:08:32;;;;;;;7.90;6.70;;;;;;;;;;5050360;28;20463;-49
2023/06/29 04:10:58;;;;;;;9.87;7.30;;;;;;;;;;5045581;28;20397;-50
2023/06/29 04:13:24;;;;;;;9.60;7.67;;;;;;;;;;5050858;28;20499;-46
2023/06/29 04:15:50;;;;;;;10.77;6.80;;;;;;;;;;5049997;28;20459;-49
2023/06/29 04:18:16;;;;;;;9.87;7.23;;;;;;;;;;5050355;28;20417;-50
2023/06/29 04:20:42;;;;;;;8.00;7.00;;;;;;;;;;5050543;28;20779;-48
2023/06/29 04:23:11;;;;;;;10.43;7.77;;;;;;;;;;5050891;28;20799;-50
2023/06/29 04:25:37;;;;;;;12.30;6.57;;;;;;;;;;5050926;28;20767;-49
2023/06/29 04:28:03;;;;;;;8.27;6.37;;;;;;;;;;5050874;28;20457;-50
2023/06/29 04:30:29;;;;;;;8.03;7.27;;;;;;;;;;5050480;28;20416;-49
2023/06/29 04:32:59;;;;;;;17.80;6.67;;;;;;;;;;5050465;28;20420;-49
2023/06/29 04:35:25;;;;;;;14.63;7.23;;;;;;;;;;5050588;28;20413;-49
2023/06/29 04:37:51;;;;;;;9.27;6.73;;;;;;;;;;5050459;28;20800;-48
2023/06/29 04:40:17;;;;;;;8.73;7.20;;;;;;;;;;5050330;28;20416;-46
2023/06/29 04:42:45;;;;;;;10.30;6.40;;;;;;;;;;5050570;28;20467;-49
2023/06/29 04:45:20;;;;;;;8.67;7.47;;;;;;;;;;5050257;28;20438;-47
2023/06/29 04:47:49;;;;;;;13.53;7.47;;;;;;;;;;5047177;28;20548;-50
2023/06/29 04:50:15;;;;;;;10.07;7.10;;;;;;;;;;5050739;28;20947;-50
2023/06/29 04:52:43;;;;;;;10.07;6.47;;;;;;;;;;5054142;28;20405;-49
2023/06/29 04:55:09;;;;;;;10.30;7.27;;;;;;;;;;5053940;28;20417;-49
2023/06/29 04:57:35;;;;;;;7.77;6.53;;;;;;;;;;5053745;28;20421;-48
2023/06/29 05:00:01;;;;;;;8.00;7.20;;;;;;;;;;5053535;28;20413;-48
2023/06/29 05:02:27;;;;;;;8.23;6.57;;;;;;;;;;5053706;28;20412;-50
2023/06/29 05:04:53;;;;;;;15.50;7.17;;;;;;;;;;5053632;28;20441;-48
2023/06/29 05:07:19;;;;;;;10.90;6.10;;;;;;;;;;5017616;28;1061144;-51
2023/06/29 05:09:45;;;;;;;15.30;7.47;;;;;;;;;;5054755;28;20181;-50
2023/06/29 05:12:11;;;;;;;7.10;6.30;;;;;;;;;;5054944;28;20413;-51
2023/06/29 05:14:37;;;;;;;9.17;6.60;;;;;;;;;;5054680;28;20409;-50
2023/06/29 05:17:03;;;;;;;9.10;6.60;;;;;;;;;;5053771;28;20463;-50
2023/06/29 05:19:30;;;;;;;12.70;7.67;;;;;;;;;;5054738;28;20405;-50
2023/06/29 05:21:56;;;;;;;13.70;6.77;;;;;;;;;;5054629;28;20402;-50
2023/06/29 05:24:22;;;;;;;9.43;6.50;;;;;;;;;;5054593;28;20415;-50
2023/06/29 05:26:48;;;;;;;10.97;6.50;;;;;;;;;;5054695;28;20417;-50
2023/06/29 05:29:14;;;;;;;7.77;6.97;;;;;;;;;;5054359;28;20782;-51
2023/06/29 05:31:40;;;;;;;11.30;6.97;;;;;;;;;;5054421;28;20410;-50
2023/06/29 05:34:06;;;;;;;6.90;6.20;;;;;;;;;;5054488;28;20472;-50
2023/06/29 05:36:32;;;;;;;9.10;6.80;;;;;;;;;;5054392;28;20482;-50
2023/06/29 05:38:58;;;;;;;10.20;6.37;;;;;;;;;;5054488;28;20446;-48
2023/06/29 05:41:24;;;;;;;7.10;6.40;;;;;;;;;;5054198;28;20418;-49
2023/06/29 05:43:50;;;;;;;7.93;6.00;;;;;;;;;;5054195;28;20412;-47
2023/06/29 05:46:16;;;;;;;12.60;6.23;;;;;;;;;;5053383;28;20482;-50
2023/06/29 05:48:42;;;;;;;7.27;5.67;;;;;;;;;;5054174;28;20475;-49
2023/06/29 05:51:08;;;;;;;10.00;6.53;;;;;;;;;;5053245;28;20470;-50
2023/06/29 05:53:34;;;;;;;14.70;7.70;;;;;;;;;;5054115;28;20887;-49
2023/06/29 05:56:00;;;;;;;9.10;6.60;;;;;;;;;;5053591;28;20773;-49
2023/06/29 05:58:26;;;;;;;7.80;6.27;;;;;;;;;;5053952;28;20879;-50
2023/06/29 06:00:52;;;;;;;8.53;7.03;;;;;;;;;;5050959;28;20508;-50
2023/06/29 06:03:19;;;;;;;9.90;6.50;;;;;;;;;;5053862;28;20899;-49
2023/06/29 06:05:45;;;;;;;7.87;6.23;;;;;;;;;;5053881;28;20436;-47
2023/06/29 06:08:11;;;;;;;8.00;5.70;;;;;;;;;;5054212;28;20515;-50
2023/06/29 06:10:38;;;;;;;11.30;6.83;;;;;;;;;;5053841;28;20401;-51
2023/06/29 06:13:04;;;;;;;9.50;5.70;;;;;;;;;;5053770;28;20405;-50
2023/06/29 06:15:30;;;;;;;8.83;5.73;;;;;;;;;;5053747;28;20506;-50
2023/06/29 06:17:56;;;;;;;7.63;6.20;;;;;;;;;;5052748;28;20449;-51
2023/06/29 06:20:22;;;;;;;7.07;5.40;;;;;;;;;;5053468;28;20426;-50
2023/06/29 06:22:48;;;;;;;6.60;5.73;;;;;;;;;;5053728;28;20406;-50
2023/06/29 06:25:17;;;;;;;6.63;5.87;;;;;;;;;;5053491;28;20907;-50
2023/06/29 06:27:43;;;;;;;7.43;5.63;;;;;;;;;;5053519;28;20519;-50
2023/06/29 06:30:09;;;;;;;7.43;6.13;;;;;;;;;;5053280;28;20422;-47
2023/06/29 06:32:38;;;;;;;7.33;5.97;;;;;;;;;;5053451;28;20412;-47
2023/06/29 06:35:05;;;;;;;6.83;6.07;;;;;;;;;;5053497;28;20454;-50
2023/06/29 06:37:31;;;;;;;6.90;6.10;;;;;;;;;;5053291;28;20429;-51
2023/06/29 06:39:57;;;;;;;8.13;5.80;;;;;;;;;;5053286;28;20761;-50
2023/06/29 06:42:23;;;;;;;6.93;6.23;;;;;;;;;;5053514;28;20409;-49
2023/06/29 06:44:51;;;;;;;9.20;6.23;;;;;;;;;;5043714;28;20417;-50
2023/06/29 06:47:17;;;;;;;9.07;6.17;;;;;;;;;;5052169;28;20468;-48
2023/06/29 06:49:43;;;;;;;7.80;5.63;;;;;;;;;;5052948;28;20420;-49
2023/06/29 06:52:09;;;;;;;9.93;6.33;;;;;;;;;;5053146;28;20555;-47
2023/06/29 06:54:35;;;;;;;6.50;5.73;;;;;;;;;;5053393;28;20394;-51
2023/06/29 06:57:01;;;;;;;8.47;6.03;;;;;;;;;;5052975;28;20543;-50
2023/06/29 06:59:27;;;;;;;10.27;6.23;;;;;;;;;;5052858;28;20413;-49
2023/06/29 07:01:52;;;;;;;8.73;5.23;;;;;;;;;;5052721;28;20418;-50
2023/06/29 07:04:18;;;;;;;7.87;5.90;;;;;;;;;;5052717;28;20421;-49
2023/06/29 07:06:46;;;;;;;9.20;6.40;;;;;;;;;;5052588;28;20451;-50
2023/06/29 07:09:12;;;;;;;7.30;5.70;;;;;;;;;;5052251;28;20511;-51
2023/06/29 07:11:38;;;;;;;8.60;6.03;;;;;;;;;;5052391;28;20409;-50
2023/06/29 07:14:04;;;;;;;6.63;4.90;;;;;;;;;;5052823;28;20455;-49
2023/06/29 07:16:30;;;;;;;6.07;5.57;;;;;;;;;;5052268;28;20469;-50
2023/06/29 07:19:08;;;;;;;6.27;5.67;;;;;;;;;;5051772;28;20429;-51
2023/06/29 07:21:34;;;;;;;6.03;5.10;;;;;;;;;;5051236;28;20405;-49
2023/06/29 07:24:00;;;;;;;7.13;5.70;;;;;;;;;;5050962;28;20409;-48
2023/06/29 07:26:26;;;;;;;11.70;5.70;;;;;;;;;;5050662;28;20437;-50
2023/06/29 07:28:52;;;;;;;7.27;5.20;;;;;;;;;;5051272;28;20492;-50
2023/06/29 07:31:23;;;;;;;5.70;5.10;;;;;;;;;;5051334;28;20405;-49
2023/06/29 07:33:49;;;;;;;8.57;5.27;;;;;;;;;;5052330;28;20406;-48
2023/06/29 07:36:15;;;;;;;5.87;5.30;;;;;;;;;;5051940;28;20785;-50
2023/06/29 07:38:43;;;;;;;5.93;5.33;;;;;;;;;;5052131;28;20417;-50
2023/06/29 07:41:09;;;;;;;6.83;5.33;;;;;;;;;;5038671;28;20492;-49
2023/06/29 07:43:35;;;;;;;8.10;5.77;;;;;;;;;;5052293;28;20857;-49
2023/06/29 07:46:01;;;;;;;8.30;5.33;;;;;;;;;;5051942;28;20496;-48
2023/06/29 07:48:28;;;;;;;7.27;5.47;;;;;;;;;;5051219;28;20461;-45
2023/06/29 07:50:54;;;;;;;7.00;5.07;;;;;;;;;;5051825;28;20485;-45
2023/06/29 07:53:21;;;;;;;6.70;5.27;;;;;;;;;;5052030;28;20413;-44
2023/06/29 07:55:47;;;;;;;7.40;5.43;;;;;;;;;;5051831;28;20405;-44
2023/06/29 07:58:13;;;;;;;5.70;5.20;;;;;;;;;;5051812;28;20897;-45
2023/06/29 08:00:39;;;;;;;5.93;5.27;;;;;;;;;;5051546;28;20408;-44
2023/06/29 08:03:05;;;;;;;8.67;5.23;;;;;;;;;;5053248;28;20433;-50
2023/06/29 08:05:31;;;;;;;6.20;4.90;;;;;;;;;;5050576;28;20492;-49
2023/06/29 08:07:56;;;;;;;5.90;5.00;;;;;;;;;;5051369;28;20575;-49
2023/06/29 08:10:22;;;;;;;8.80;5.27;;;;;;;;;;5051666;28;20418;-49
2023/06/29 08:12:49;;;;;;;7.60;5.07;;;;;;;;;;5051690;28;20406;-48
2023/06/29 08:15:15;;;;;;;5.87;5.30;;;;;;;;;;5051549;28;20778;-50
2023/06/29 08:17:41;;;;;;;5.50;4.97;;;;;;;;;;5050693;28;20490;-47
2023/06/29 08:20:12;;;;;;;7.50;4.60;;;;;;;;;;5051146;28;20488;-48
2023/06/29 08:22:38;;;;;;;5.00;4.60;;;;;;;;;;5048419;28;20420;-50
2023/06/29 08:25:04;;;;;;;5.90;4.43;;;;;;;;;;5051386;28;20424;-49
2023/06/29 08:27:30;;;;;;;6.93;4.20;;;;;;;;;;5051395;28;20534;-50
2023/06/29 08:29:56;;;;;;;5.50;5.00;;;;;;;;;;5051204;28;20429;-50
2023/06/29 08:32:22;;;;;;;4.63;4.23;;;;;;;;;;5051353;28;20421;-49
2023/06/29 08:34:48;;;;;;;4.70;4.30;;;;;;;;;;5051375;28;20469;-47
2023/06/29 08:37:14;;;;;;;4.67;4.17;;;;;;;;;;5051348;28;20785;-50
2023/06/29 08:39:40;;;;;;;4.80;4.30;;;;;;;;;;5051175;28;20417;-50
2023/06/29 08:42:07;;;;;;;6.17;4.40;;;;;;;;;;5051492;28;20420;-49
2023/06/29 08:44:33;;;;;;;4.50;4.07;;;;;;;;;;5051222;28;20417;-47
2023/06/29 08:47:00;;;;;;;8.37;4.50;;;;;;;;;;5050283;28;20857;-49
2023/06/29 08:49:27;;;;;;;6.60;4.47;;;;;;;;;;5051189;28;20413;-50
2023/06/29 08:51:55;;;;;;;4.27;3.87;;;;;;;;;;5051108;28;20485;-48
2023/06/29 08:54:22;;;;;;;8.03;4.00;;;;;;;;;;5051176;28;20409;-50
2023/06/29 08:56:48;;;;;;;4.40;3.83;;;;;;;;;;5051183;28;20474;-47
2023/06/29 08:59:15;;;;;;;5.83;5.00;;;;;;;;;;5051071;28;20425;-47
2023/06/29 09:01:41;;;;;;;7.53;5.50;;;;;;;;;;5050883;28;20912;-49
2023/06/29 09:04:07;;;;;;;8.10;5.13;;;;;;;;;;5051051;28;20424;-50
2023/06/29 09:06:33;;;;;;;4.73;4.23;;;;;;;;;;5051049;28;20457;-51
2023/06/29 09:08:59;;;;;;;6.17;4.23;;;;;;;;;;5051050;28;20471;-50
2023/06/29 09:11:25;;;;;;;6.90;4.40;;;;;;;;;;5050689;28;20410;-49
2023/06/29 09:13:51;;;;;;;6.73;4.03;;;;;;;;;;5050970;28;20395;-49
2023/06/29 09:16:21;;;;;;;4.20;3.83;;;;;;;;;;5050703;28;20421;-47
2023/06/29 09:18:54;;;;;;;4.40;4.00;;;;;;;;;;5049428;28;21149;-51
2023/06/29 09:21:21;;;;;;;6.30;4.80;;;;;;;;;;5050939;28;20472;-49
2023/06/29 09:23:47;;;;;;;6.20;3.80;;;;;;;;;;5050980;28;20480;-50
2023/06/29 09:26:13;;;;;;;4.67;4.27;;;;;;;;;;5050870;28;20493;-49
2023/06/29 09:28:45;;;;;;;8.90;4.77;;;;;;;;;;5050675;28;20458;-50
2023/06/29 09:31:12;;;;;;;5.07;4.57;;;;;;;;;;5051694;28;20447;-49
2023/06/29 09:33:38;;;;;;;7.27;5.10;;;;;;;;;;5054566;28;20399;-50
2023/06/29 09:36:07;;;;;;;7.63;4.67;;;;;;;;;;5054548;28;20413;-50
2023/06/29 09:38:34;;;;;;;6.27;4.53;;;;;;;;;;5054501;28;20509;-48
2023/06/29 09:41:02;;;;;;;8.07;4.60;;;;;;;;;;5054341;28;20408;-50
2023/06/29 09:43:28;;;;;;;6.77;4.93;;;;;;;;;;5054162;28;20427;-50
2023/06/29 09:46:21;;;;;;;7.10;4.67;;;;;;;;;;5054365;28;20411;-49
2023/06/29 09:48:48;;;;;;;5.20;4.70;;;;;;;;;;5049022;28;20475;-50
2023/06/29 09:51:20;;;;;;;5.40;4.90;;;;;;;;;;5054141;28;20409;-50
2023/06/29 09:53:47;;;;;;;5.90;5.03;;;;;;;;;;5053994;28;20428;-51
2023/06/29 09:56:13;;;;;;;5.77;4.70;;;;;;;;;;5054130;28;20432;-47
2023/06/29 09:58:39;;;;;;;10.73;5.50;;;;;;;;;;5054198;28;20924;-48
2023/06/29 10:01:05;;;;;;;7.73;4.83;;;;;;;;;;5053417;28;20414;-50
2023/06/29 10:03:32;;;;;;;11.60;4.70;;;;;;;;;;5052876;28;20778;-50
2023/06/29 10:06:01;;;;;;;7.27;5.40;;;;;;;;;;5053891;28;20421;-50
2023/06/29 10:08:28;;;;;;;7.30;5.70;;;;;;;;;;5053886;28;20850;-49
2023/06/29 10:10:57;;;;;;;7.57;5.23;;;;;;;;;;5053713;28;20503;-50
2023/06/29 10:13:24;;;;;;;7.13;5.83;;;;;;;;;;5053831;28;20407;-49
2023/06/29 10:15:52;;;;;;;7.23;5.73;;;;;;;;;;5053676;28;20931;-49
2023/06/29 10:18:25;;;;;;;6.00;5.50;;;;;;;;;;5053774;28;20428;-49
2023/06/29 10:20:51;;;;;;;7.60;6.60;;;;;;;;;;5053695;28;20440;-51
2023/06/29 10:23:17;;;;;;;7.70;5.93;;;;;;;;;;5053625;28;20454;-49
2023/06/29 10:25:45;;;;;;;9.53;5.40;;;;;;;;;;5053708;28;20420;-51
2023/06/29 10:28:12;;;;;;;10.23;6.90;;;;;;;;;;5053296;28;20561;-47
2023/06/29 10:30:44;;;;;;;8.03;6.00;;;;;;;;;;5053342;28;20456;-50
2023/06/29 10:33:10;;;;;;;6.60;5.97;;;;;;;;;;5053544;28;20415;-49
2023/06/29 10:35:36;;;;;;;6.70;5.70;;;;;;;;;;5052768;28;20439;-50
2023/06/29 10:38:08;;;;;;;8.90;6.63;;;;;;;;;;5053417;28;20432;-51
2023/06/29 10:40:45;;;;;;;8.43;5.60;;;;;;;;;;5053095;28;20406;-49
2023/06/29 10:43:11;;;;;;;11.70;6.47;;;;;;;;;;5048518;28;20415;-50
2023/06/29 10:45:38;;;;;;;9.10;6.53;;;;;;;;;;5053242;28;20423;-49
2023/06/29 10:48:04;;;;;;;8.43;6.93;;;;;;;;;;5052967;28;21003;-50
2023/06/29 10:50:38;;;;;;;10.23;7.10;;;;;;;;;;5052931;28;20415;-50
2023/06/29 10:53:06;;;;;;;20.03;7.13;;;;;;;;;;5053130;28;20813;-49
2023/06/29 10:55:39;;;;;;;9.30;6.73;;;;;;;;;;5053160;28;20567;-49
2023/06/29 10:58:14;;;;;;;6.93;6.23;;;;;;;;;;5052918;28;20443;-47
2023/06/29 11:00:40;;;;;;;9.97;7.00;;;;;;;;;;5044738;28;20408;-51
2023/06/29 11:03:08;;;;;;;11.17;6.80;;;;;;;;;;5052509;28;20476;-50
2023/06/29 11:05:34;;;;;;;12.33;7.47;;;;;;;;;;5050181;28;20427;-48
2023/06/29 11:08:00;;;;;;;8.30;6.70;;;;;;;;;;5051933;28;20463;-49
2023/06/29 11:10:26;;;;;;;9.87;7.03;;;;;;;;;;5052461;28;20415;-51
2023/06/29 11:12:55;;;;;;;13.97;7.37;;;;;;;;;;5052518;28;20452;-50
2023/06/29 11:15:22;;;;;;;11.57;7.20;;;;;;;;;;5052536;28;20902;-50
2023/06/29 11:17:51;;;;;;;8.40;6.70;;;;;;;;;;5052631;28;20478;-50
2023/06/29 11:20:18;;;;;;;7.60;6.80;;;;;;;;;;5045164;28;20938;-50
2023/06/29 11:22:45;;;;;;;9.53;7.03;;;;;;;;;;5047680;28;20461;-50
2023/06/29 11:25:12;;;;;;;8.43;7.30;;;;;;;;;;5052075;28;20409;-48
2023/06/29 11:27:38;;;;;;;8.60;6.97;;;;;;;;;;5046153;28;20456;-51
2023/06/29 11:30:07;;;;;;;7.43;5.90;;;;;;;;;;5046362;28;20823;-49
2023/06/29 11:32:33;;;;;;;9.57;6.37;;;;;;;;;;5052171;28;20409;-50
2023/06/29 11:35:00;;;;;;;11.20;6.30;;;;;;;;;;5048559;28;20494;-50
2023/06/29 11:37:27;;;;;;;15.00;6.47;;;;;;;;;;5052048;28;20799;-50
2023/06/29 11:39:53;;;;;;;10.20;7.20;;;;;;;;;;5050888;28;20414;-51
2023/06/29 11:42:21;;;;;;;11.10;6.70;;;;;;;;;;5052065;28;20407;-50
2023/06/29 11:44:48;;;;;;;8.03;6.17;;;;;;;;;;5052239;28;20405;-48
2023/06/29 11:47:15;;;;;;;8.90;6.00;;;;;;;;;;5051264;28;20439;-45
2023/06/29 11:49:41;;;;;;;13.60;6.33;;;;;;;;;;5052784;28;20417;-46
2023/06/29 11:52:08;;;;;;;10.87;6.83;;;;;;;;;;5051927;28;20428;-49
2023/06/29 11:54:35;;;;;;;12.03;5.90;;;;;;;;;;5051621;28;20413;-51
2023/06/29 11:57:01;;;;;;;11.43;6.80;;;;;;;;;;5051642;28;20515;-51
2023/06/29 11:59:27;;;;;;;12.50;7.13;;;;;;;;;;5051574;28;20500;-49
2023/06/29 12:01:53;;;;;;;15.87;7.27;;;;;;;;;;5051103;28;20398;-50
2023/06/29 12:04:19;;;;;;;9.40;6.80;;;;;;;;;;5050546;28;20461;-50
2023/06/29 12:06:52;;;;;;;9.77;6.03;;;;;;;;;;5051421;28;20441;-50
2023/06/29 12:09:18;;;;;;;6.80;6.10;;;;;;;;;;5051580;28;20456;-50
2023/06/29 12:11:44;;;;;;;10.33;8.20;;;;;;;;;;5051261;28;20479;-47
2023/06/29 12:14:11;;;;;;;9.10;7.20;;;;;;;;;;5051368;28;20927;-51
2023/06/29 12:16:43;;;;;;;9.23;8.10;;;;;;;;;;5051228;28;20949;-50
2023/06/29 12:19:09;;;;;;;10.50;7.80;;;;;;;;;;5051106;28;20409;-48
2023/06/29 12:21:36;;;;;;;151.17;14.80;;;;;;;;;;5050824;28;20405;-50
2023/06/29 12:24:03;;;;;;;14.67;8.20;;;;;;;;;;5051021;28;20484;-48
2023/06/29 12:26:29;;;;;;;9.63;7.23;;;;;;;;;;5051351;28;20472;-50
2023/06/29 12:28:55;;;;;;;10.03;8.13;;;;;;;;;;5051307;28;20489;-49
2023/06/29 12:31:27;;;;;;;11.23;8.67;;;;;;;;;;5050108;28;20411;-49
2023/06/29 12:33:54;;;;;;;24.83;9.57;;;;;;;;;;5051612;28;20413;-50
2023/06/29 12:36:20;;;;;;;29.67;8.70;;;;;;;;;;5050331;28;20448;-50
2023/06/29 12:38:49;;;;;;;19.90;9.27;;;;;;;;;;5051469;28;20409;-50
2023/06/29 12:41:15;;;;;;;27.33;9.27;;;;;;;;;;5051202;28;20405;-49
2023/06/29 12:43:41;;;;;;;18.20;8.70;;;;;;;;;;5051342;28;20405;-48
2023/06/29 12:46:10;;;;;;;15.10;9.20;;;;;;;;;;5051313;28;20507;-48
2023/06/29 12:48:39;;;;;;;14.57;8.57;;;;;;;;;;5051313;28;20468;-49
2023/06/29 12:51:05;;;;;;;15.70;8.70;;;;;;;;;;5050741;28;20418;-51
2023/06/29 12:53:35;;;;;;;11.90;8.90;;;;;;;;;;5050532;28;20412;-48
2023/06/29 12:56:01;;;;;;;11.50;8.80;;;;;;;;;;5049054;28;20405;-49
2023/06/29 12:58:27;;;;;;;15.37;9.33;;;;;;;;;;5048813;28;20428;-49
2023/06/29 13:00:53;;;;;;;14.07;9.07;;;;;;;;;;5049882;28;20898;-50
2023/06/29 13:03:19;;;;;;;11.80;9.10;;;;;;;;;;5049660;28;20838;-50
2023/06/29 13:05:49;;;;;;;16.57;10.10;;;;;;;;;;5049621;28;20506;-50
2023/06/29 13:08:15;;;;;;;14.27;10.50;;;;;;;;;;5053869;28;20468;-49
2023/06/29 13:10:41;;;;;;;16.87;9.93;;;;;;;;;;5054512;28;20772;-48
2023/06/29 13:13:07;;;;;;;15.83;10.70;;;;;;;;;;5054726;28;20425;-49
2023/06/29 13:15:33;;;;;;;13.53;10.70;;;;;;;;;;5053679;28;20425;-48
2023/06/29 13:17:59;;;;;;;22.40;11.83;;;;;;;;;;5054640;28;20504;-48
2023/06/29 13:20:26;;;;;;;15.50;10.87;;;;;;;;;;5054416;28;20404;-50
2023/06/29 13:22:52;;;;;;;14.17;11.50;;;;;;;;;;5054813;28;20484;-49
2023/06/29 13:25:18;;;;;;;14.37;11.03;;;;;;;;;;5054392;28;20451;-50
2023/06/29 13:27:45;;;;;;;15.30;11.37;;;;;;;;;;5054486;28;20468;-49
2023/06/29 13:30:14;;;;;;;13.50;10.57;;;;;;;;;;5054298;28;20873;-50
2023/06/29 13:32:40;;;;;;;16.50;11.23;;;;;;;;;;5046733;28;20405;-50
2023/06/29 13:35:06;;;;;;;14.23;10.87;;;;;;;;;;5053999;28;20408;-45
2023/06/29 13:37:32;;;;;;;18.30;12.30;;;;;;;;;;5053968;28;20440;-50
2023/06/29 13:39:58;;;;;;;26.37;12.40;;;;;;;;;;5054052;28;20404;-50
2023/06/29 13:42:24;;;;;;;15.37;11.90;;;;;;;;;;5054394;28;20547;-50
2023/06/29 13:44:50;;;;;;;22.77;13.40;;;;;;;;;;5054430;28;20451;-50
2023/06/29 13:47:19;;;;;;;17.63;11.40;;;;;;;;;;5053962;28;20436;-50
2023/06/29 13:49:46;;;;;;;15.20;11.50;;;;;;;;;;5053735;28;20397;-49
2023/06/29 13:52:12;;;;;;;19.83;11.50;;;;;;;;;;5054180;28;20897;-50
2023/06/29 13:54:38;;;;;;;20.47;12.43;;;;;;;;;;5053313;28;20408;-48
2023/06/29 13:57:05;;;;;;;15.87;11.67;;;;;;;;;;5053948;28;20435;-50
2023/06/29 13:59:31;;;;;;;15.27;11.97;;;;;;;;;;5054044;28;20765;-50
2023/06/29 14:01:57;;;;;;;15.60;12.03;;;;;;;;;;5054062;28;20409;-49
2023/06/29 14:04:24;;;;;;;17.73;11.87;;;;;;;;;;5054631;28;20415;-49
2023/06/29 14:06:50;;;;;;;18.83;11.20;;;;;;;;;;5052679;28;20471;-50
2023/06/29 14:09:17;;;;;;;23.77;12.97;;;;;;;;;;5053668;28;20492;-50
2023/06/29 14:11:43;;;;;;;16.33;11.73;;;;;;;;;;5053717;28;20412;-50
2023/06/29 14:14:09;;;;;;;18.53;14.60;;;;;;;;;;5050235;28;20417;-48
2023/06/29 14:16:35;;;;;;;17.80;11.97;;;;;;;;;;5048382;28;20429;-50
2023/06/29 14:19:02;;;;;;;23.27;12.77;;;;;;;;;;5053759;28;20692;-50
2023/06/29 14:21:28;;;;;;;18.37;11.97;;;;;;;;;;5053406;28;20453;-47
2023/06/29 14:23:54;;;;;;;16.00;11.80;;;;;;;;;;5047460;28;20566;-49
2023/06/29 14:26:20;;;;;;;24.83;14.33;;;;;;;;;;5051557;28;20794;-48
2023/06/29 14:28:47;;;;;;;19.60;13.83;;;;;;;;;;5051871;28;20564;-47
2023/06/29 14:31:15;;;;;;;16.30;13.03;;;;;;;;;;5051857;28;20409;-48
2023/06/29 14:33:41;;;;;;;18.23;14.07;;;;;;;;;;5051663;28;20502;-48